Time;durP1;ratioP1;P1;durP2;ratioP2;P2;SDS_P1;SDS_P2;PMS_P1;PMS_P2;Temp;Humidity;BMP_temperature;BMP_pressure;BME280_temperature;BME280_humidity;BME280_pressure;Samples;Min_cycle;Max_cycle;Signal;HPM_P1;HPM_P2
2023/01/04 00:01:05;;;;;;;0.30;0.30;;;6.10;99.90;;;;;;5050543;28;20464;-78
2023/01/04 00:03:31;;;;;;;0.30;0.30;;;6.10;99.90;;;;;;5052180;28;20187;-77
2023/01/04 00:05:58;;;;;;;0.30;0.30;;;6.10;99.90;;;;;;5050682;28;20546;-78
2023/01/04 00:08:24;;;;;;;0.30;0.30;;;6.10;99.90;;;;;;5052744;28;20890;-78
2023/01/04 00:10:49;;;;;;;0.30;0.30;;;6.10;99.90;;;;;;5033312;28;20494;-78
2023/01/04 00:13:15;;;;;;;0.30;0.30;;;6.10;99.90;;;;;;5045832;28;20183;-78
2023/01/04 00:15:40;;;;;;;0.30;0.30;;;6.10;99.90;;;;;;5046761;28;20213;-78
2023/01/04 00:18:06;;;;;;;0.30;0.30;;;6.10;99.90;;;;;;5050812;28;20273;-78
2023/01/04 00:20:32;;;;;;;0.30;0.30;;;6.20;99.90;;;;;;5027521;28;20661;-77
2023/01/04 00:22:57;;;;;;;0.30;0.30;;;6.20;99.90;;;;;;5050284;28;20209;-77
2023/01/04 00:25:23;;;;;;;0.30;0.30;;;6.20;99.90;;;;;;5051109;28;20306;-77
2023/01/04 00:27:52;;;;;;;0.30;0.30;;;6.10;99.90;;;;;;5045814;28;20249;-77
2023/01/04 00:30:18;;;;;;;0.30;0.30;;;6.10;99.90;;;;;;5047885;28;20440;-78
2023/01/04 00:32:43;;;;;;;0.30;0.30;;;6.10;99.90;;;;;;5050430;28;20449;-77
2023/01/04 00:35:11;;;;;;;0.30;0.30;;;6.10;99.90;;;;;;5050342;28;20212;-77
2023/01/04 00:37:36;;;;;;;0.30;0.30;;;6.10;99.90;;;;;;5042898;28;20276;-78
2023/01/04 00:40:02;;;;;;;0.30;0.30;;;6.10;99.90;;;;;;5050623;28;20421;-78
2023/01/04 00:42:28;;;;;;;0.30;0.30;;;6.00;99.90;;;;;;5049874;28;20198;-78
2023/01/04 00:44:53;;;;;;;0.30;0.30;;;6.00;99.90;;;;;;5051106;28;20428;-78
2023/01/04 00:47:19;;;;;;;0.30;0.30;;;6.00;99.90;;;;;;5048597;28;20233;-78
2023/01/04 00:49:44;;;;;;;0.20;0.20;;;6.00;99.90;;;;;;5048714;28;20190;-78
2023/01/04 00:52:10;;;;;;;0.30;0.30;;;5.90;99.90;;;;;;5046620;28;20190;-78
2023/01/04 00:54:35;;;;;;;0.30;0.30;;;6.00;99.90;;;;;;5047671;28;20206;-78
2023/01/04 00:57:01;;;;;;;0.30;0.30;;;6.00;99.90;;;;;;5050357;28;20195;-78
2023/01/04 00:59:27;;;;;;;0.30;0.30;;;5.90;99.90;;;;;;5051256;28;20191;-78
2023/01/04 01:01:52;;;;;;;0.20;0.20;;;5.90;99.90;;;;;;5032051;28;20332;-79
2023/01/04 01:04:21;;;;;;;0.30;0.30;;;5.90;99.90;;;;;;5050679;28;20485;-78
2023/01/04 01:06:47;;;;;;;0.30;0.30;;;5.90;99.90;;;;;;5047279;28;20681;-78
2023/01/04 01:09:13;;;;;;;0.30;0.30;;;5.90;99.90;;;;;;5038018;28;20439;-79
2023/01/04 01:11:39;;;;;;;0.30;0.30;;;5.90;99.90;;;;;;5033501;28;20490;-78
2023/01/04 01:14:07;;;;;;;0.27;0.27;;;5.90;99.90;;;;;;5050137;28;20948;-79
2023/01/04 01:16:33;;;;;;;0.30;0.30;;;5.90;99.90;;;;;;5032221;28;20491;-78
2023/01/04 01:18:58;;;;;;;0.30;0.30;;;5.90;99.90;;;;;;5051097;28;20818;-78
2023/01/04 01:21:26;;;;;;;0.30;0.30;;;5.90;99.90;;;;;;5045906;28;20191;-79
2023/01/04 01:23:53;;;;;;;0.30;0.30;;;5.90;99.90;;;;;;5046357;28;20270;-78
2023/01/04 01:26:21;;;;;;;0.30;0.30;;;5.90;99.90;;;;;;5050349;28;21011;-78
2023/01/04 01:28:47;;;;;;;0.30;0.30;;;5.90;99.90;;;;;;5042073;28;20452;-78
2023/01/04 01:31:16;;;;;;;0.30;0.30;;;5.90;99.90;;;;;;5031786;28;20835;-78
2023/01/04 01:33:43;;;;;;;0.30;0.30;;;6.00;99.90;;;;;;5039842;28;20187;-78
2023/01/04 01:36:09;;;;;;;0.30;0.30;;;6.00;99.90;;;;;;5049853;28;21170;-80
2023/01/04 01:38:35;;;;;;;0.30;0.30;;;6.00;99.90;;;;;;5035515;28;21036;-79
2023/01/04 01:41:01;;;;;;;0.30;0.30;;;6.00;99.90;;;;;;5038453;28;20433;-79
2023/01/04 01:43:50;;;;;;;0.30;0.30;;;6.00;99.90;;;;;;5049143;28;20912;-79
2023/01/04 01:46:22;;;;;;;0.20;0.20;;;6.00;99.90;;;;;;5043656;28;20364;-79
2023/01/04 01:48:49;;;;;;;0.30;0.30;;;6.00;99.90;;;;;;5048493;28;20436;-79
2023/01/04 01:51:16;;;;;;;0.30;0.30;;;6.00;99.90;;;;;;5045526;28;20448;-79
2023/01/04 01:53:44;;;;;;;0.30;0.30;;;6.00;99.90;;;;;;5047588;28;20504;-78
2023/01/04 01:56:11;;;;;;;0.30;0.30;;;6.00;99.90;;;;;;5050106;28;20552;-79
2023/01/04 01:58:40;;;;;;;0.30;0.30;;;6.00;99.90;;;;;;5037675;28;20441;-78
2023/01/04 02:01:07;;;;;;;0.30;0.30;;;6.00;99.90;;;;;;5039075;28;20441;-79
2023/01/04 02:03:37;;;;;;;0.30;0.30;;;6.10;99.90;;;;;;5050934;28;20908;-76
2023/01/04 02:06:07;;;;;;;0.27;0.27;;;6.10;99.90;;;;;;5050126;28;20473;-79
2023/01/04 02:08:32;;;;;;;0.30;0.30;;;6.10;99.90;;;;;;5048913;28;20444;-78
2023/01/04 02:10:58;;;;;;;0.20;0.20;;;6.10;99.90;;;;;;5050253;28;21039;-78
2023/01/04 02:14:25;;;;;;;0.30;0.30;;;6.10;99.90;;;;;;5050395;28;20190;-79
2023/01/04 02:16:41;;;;;;;0.20;0.20;;;6.20;99.90;;;;;;5048376;28;20256;-78
2023/01/04 02:19:44;;;;;;;0.30;0.30;;;6.20;99.90;;;;;;5033058;28;20457;-79
2023/01/04 02:22:28;;;;;;;0.30;0.30;;;6.20;99.90;;;;;;5015848;28;20458;-79
2023/01/04 02:25:15;;;;;;;0.30;0.30;;;6.20;99.90;;;;;;5039288;28;20463;-79
2023/01/04 02:28:08;;;;;;;0.30;0.30;;;6.30;99.90;;;;;;5049336;28;20957;-79
2023/01/04 02:30:52;;;;;;;0.30;0.30;;;6.30;99.90;;;;;;5040261;28;20441;-79
2023/01/04 02:33:30;;;;;;;0.30;0.30;;;6.30;99.90;;;;;;5039313;28;20445;-79
2023/01/04 02:36:23;;;;;;;0.23;0.23;;;6.30;99.90;;;;;;5047089;28;20955;-79
2023/01/04 02:39:07;;;;;;;0.30;0.30;;;6.30;99.90;;;;;;5029083;28;20521;-79
2023/01/04 02:41:36;;;;;;;0.30;0.30;;;6.40;99.90;;;;;;5035115;28;20545;-79
2023/01/04 02:50:29;;;;;;;0.30;0.30;;;6.40;99.90;;;;;;5048326;28;20638;-80
2023/01/04 02:50:31;;;;;;;0.30;0.30;;;6.50;99.90;;;;;;5045325;28;20472;-78
2023/01/04 02:53:11;;;;;;;0.30;0.30;;;6.40;99.90;;;;;;5028074;28;20900;-79
2023/01/04 02:56:11;;;;;;;0.30;0.30;;;6.40;99.90;;;;;;5045147;28;20456;-79
2023/01/04 02:59:03;;;;;;;0.30;0.30;;;6.50;99.90;;;;;;5035270;28;20507;-79
2023/01/04 03:08:11;;;;;;;0.30;0.30;;;6.40;99.90;;;;;;5030276;28;20417;-79
2023/01/04 03:10:44;;;;;;;0.30;0.30;;;6.40;99.90;;;;;;5041674;28;20440;-79
2023/01/04 03:13:22;;;;;;;0.30;0.30;;;6.40;99.90;;;;;;5047044;28;20433;-79
2023/01/04 03:15:52;;;;;;;0.30;0.30;;;6.40;99.90;;;;;;5048443;28;20452;-79
2023/01/04 03:18:29;;;;;;;0.30;0.30;;;6.40;99.90;;;;;;5030890;28;20457;-78
2023/01/04 03:20:57;;;;;;;0.30;0.30;;;6.40;99.90;;;;;;5047703;28;20449;-78
2023/01/04 03:37:42;;;;;;;0.30;0.30;;;6.30;99.90;;;;;;5054176;28;20881;-78
2023/01/04 03:49:07;;;;;;;0.27;0.27;;;6.20;99.90;;;;;;5052194;28;21018;-78
2023/01/04 03:51:36;;;;;;;0.30;0.30;;;6.20;99.90;;;;;;5033349;28;20448;-78
2023/01/04 03:54:13;;;;;;;0.30;0.30;;;6.20;99.90;;;;;;5051916;28;20417;-78
2023/01/04 03:56:41;;;;;;;0.30;0.30;;;6.20;99.90;;;;;;5046380;28;20502;-78
2023/01/04 03:59:07;;;;;;;0.30;0.30;;;6.10;99.90;;;;;;5050857;28;20436;-78
2023/01/04 04:01:34;;;;;;;0.30;0.30;;;6.10;99.90;;;;;;5044923;28;20456;-78
2023/01/04 04:09:28;;;;;;;0.27;0.27;;;6.10;99.90;;;;;;5051600;28;20416;-79
2023/01/04 04:11:54;;;;;;;0.30;0.30;;;6.00;99.90;;;;;;5048726;28;20444;-79
2023/01/04 04:14:19;;;;;;;0.30;0.30;;;6.00;99.90;;;;;;5050743;28;20191;-79
2023/01/04 04:16:45;;;;;;;0.30;0.30;;;6.00;99.90;;;;;;5050599;28;20190;-79
2023/01/04 04:19:10;;;;;;;0.20;0.20;;;6.00;99.90;;;;;;5050578;28;20788;-79
2023/01/04 04:21:36;;;;;;;0.20;0.20;;;6.00;99.90;;;;;;5049202;28;20376;-79
2023/01/04 04:24:02;;;;;;;0.30;0.30;;;6.00;99.90;;;;;;5050295;28;20191;-79
2023/01/04 04:26:27;;;;;;;0.20;0.20;;;6.00;99.90;;;;;;5050868;28;20321;-79
2023/01/04 04:28:53;;;;;;;0.30;0.30;;;5.90;99.90;;;;;;5048269;28;20270;-80
2023/01/04 04:31:18;;;;;;;0.20;0.20;;;6.00;99.90;;;;;;5050212;28;20205;-80
2023/01/04 04:33:44;;;;;;;0.30;0.30;;;6.00;99.90;;;;;;5032718;28;20194;-80
2023/01/04 04:36:10;;;;;;;0.20;0.20;;;6.00;99.90;;;;;;5043858;28;20263;-80
2023/01/04 04:38:36;;;;;;;0.20;0.20;;;5.90;99.90;;;;;;5051206;28;20163;-81
2023/01/04 04:43:54;;;;;;;0.20;0.20;;;5.90;99.90;;;;;;5049730;28;20190;-81
2023/01/04 04:46:20;;;;;;;0.20;0.20;;;5.90;99.90;;;;;;5046958;28;20489;-82
2023/01/04 04:48:46;;;;;;;0.30;0.30;;;5.90;99.90;;;;;;5049655;28;20437;-81
2023/01/04 04:51:11;;;;;;;0.30;0.30;;;5.90;99.90;;;;;;5049165;28;20814;-83
2023/01/04 04:53:37;;;;;;;0.30;0.30;;;5.90;99.90;;;;;;5031133;28;20233;-83
2023/01/04 04:56:02;;;;;;;0.20;0.20;;;5.90;99.90;;;;;;5051213;28;20182;-83
2023/01/04 04:58:28;;;;;;;0.30;0.30;;;5.90;99.90;;;;;;5048449;28;20197;-85
2023/01/04 05:00:53;;;;;;;0.30;0.30;;;5.90;99.90;;;;;;5051110;28;20182;-85
2023/01/04 05:03:19;;;;;;;0.20;0.20;;;5.90;99.90;;;;;;5050903;28;20218;-84
2023/01/04 05:05:44;;;;;;;0.20;0.20;;;5.90;99.90;;;;;;5014260;28;1010657;-84
2023/01/04 05:08:10;;;;;;;0.30;0.30;;;5.90;99.90;;;;;;5051118;28;20862;-84
2023/01/04 05:10:37;;;;;;;0.20;0.20;;;5.90;99.90;;;;;;5049645;28;20214;-83
2023/01/04 05:13:04;;;;;;;0.20;0.20;;;5.90;99.90;;;;;;5051646;28;20187;-84
2023/01/04 05:15:34;;;;;;;0.30;0.30;;;5.90;99.90;;;;;;5050554;28;20494;-84
2023/01/04 05:17:59;;;;;;;0.30;0.30;;;5.90;99.90;;;;;;5028741;28;20540;-86
2023/01/04 05:20:25;;;;;;;0.20;0.20;;;5.90;99.90;;;;;;5049414;28;20460;-87
2023/01/04 05:22:51;;;;;;;0.20;0.20;;;5.90;99.90;;;;;;5031140;28;20586;-84
2023/01/04 05:25:17;;;;;;;0.20;0.20;;;5.90;99.90;;;;;;5032630;28;20479;-85
2023/01/04 05:27:43;;;;;;;0.30;0.30;;;5.90;99.90;;;;;;5032435;28;20237;-84
2023/01/04 05:32:56;;;;;;;0.20;0.20;;;5.90;99.90;;;;;;5049833;28;20511;-87
2023/01/04 05:35:22;;;;;;;0.20;0.20;;;5.90;99.90;;;;;;5040487;28;20457;-87
2023/01/04 05:37:48;;;;;;;0.20;0.20;;;5.90;99.90;;;;;;5048404;28;20445;-87
2023/01/04 05:40:13;;;;;;;0.20;0.20;;;5.90;99.90;;;;;;5029797;28;20198;-86
2023/01/04 05:42:39;;;;;;;0.20;0.20;;;5.90;99.90;;;;;;5021289;28;20715;-87
2023/01/04 05:45:05;;;;;;;0.20;0.20;;;5.90;99.90;;;;;;5027862;28;20279;-88
2023/01/04 05:47:30;;;;;;;0.20;0.20;;;5.90;99.90;;;;;;5028306;28;20196;-88
2023/01/04 05:49:56;;;;;;;0.20;0.20;;;5.90;99.90;;;;;;5044875;28;20508;-88
2023/01/04 05:52:22;;;;;;;0.20;0.20;;;5.90;99.90;;;;;;5034447;28;20648;-88
2023/01/04 05:54:47;;;;;;;0.20;0.20;;;5.90;99.90;;;;;;5016658;28;20202;-86
2023/01/04 05:57:13;;;;;;;0.20;0.20;;;6.00;99.90;;;;;;5042302;28;20272;-87
2023/01/04 05:59:39;;;;;;;0.20;0.20;;;6.00;99.90;;;;;;5043806;28;20195;-86
2023/01/04 06:02:05;;;;;;;0.20;0.20;;;6.00;99.90;;;;;;5029176;28;20822;-86
2023/01/04 06:04:31;;;;;;;0.20;0.20;;;6.00;99.90;;;;;;5043704;28;20245;-86
2023/01/04 06:06:56;;;;;;;0.20;0.20;;;6.00;99.90;;;;;;5049867;28;20488;-87
2023/01/04 06:09:23;;;;;;;0.20;0.20;;;6.00;99.90;;;;;;5031354;28;20186;-88
2023/01/04 06:11:49;;;;;;;0.20;0.20;;;6.00;99.90;;;;;;5031125;28;20212;-88
2023/01/04 06:14:15;;;;;;;0.20;0.20;;;6.10;99.90;;;;;;5019036;28;20434;-86
2023/01/04 06:16:40;;;;;;;0.30;0.30;;;6.10;99.90;;;;;;5031868;28;20195;-87
2023/01/04 06:19:06;;;;;;;0.20;0.20;;;6.00;99.90;;;;;;5046616;28;20207;-87
2023/01/04 06:21:31;;;;;;;0.30;0.30;;;6.00;99.90;;;;;;5048920;28;20231;-87
2023/01/04 06:23:57;;;;;;;0.30;0.30;;;6.10;99.90;;;;;;5051003;28;20183;-87
2023/01/04 06:26:22;;;;;;;0.20;0.20;;;6.10;99.90;;;;;;5049973;28;20356;-87
2023/01/04 06:28:47;;;;;;;0.20;0.20;;;6.10;99.90;;;;;;5042143;28;20193;-86
2023/01/04 06:31:13;;;;;;;0.20;0.20;;;6.10;99.90;;;;;;5045269;28;20267;-86
2023/01/04 06:33:39;;;;;;;0.20;0.20;;;6.20;99.90;;;;;;5045212;28;20182;-87
2023/01/04 06:36:05;;;;;;;0.20;0.20;;;6.20;99.90;;;;;;5044680;28;20214;-87
2023/01/04 06:38:32;;;;;;;0.30;0.30;;;6.20;99.90;;;;;;5039979;28;20256;-86
2023/01/04 06:40:58;;;;;;;0.30;0.30;;;6.20;99.90;;;;;;5039224;28;20461;-87
2023/01/04 06:43:23;;;;;;;0.30;0.30;;;6.30;99.90;;;;;;5045468;28;20445;-84
2023/01/04 06:45:49;;;;;;;0.20;0.20;;;6.20;99.90;;;;;;5026075;28;20836;-87
2023/01/04 06:48:14;;;;;;;0.30;0.30;;;6.30;99.90;;;;;;5047864;28;20187;-86
2023/01/04 06:50:41;;;;;;;0.20;0.20;;;6.40;99.90;;;;;;5040856;28;20269;-87
2023/01/04 06:53:06;;;;;;;0.20;0.20;;;6.40;99.90;;;;;;5046375;28;20187;-86
2023/01/04 06:55:32;;;;;;;0.30;0.30;;;6.40;99.90;;;;;;5027901;28;20921;-86
2023/01/04 06:57:57;;;;;;;0.20;0.20;;;6.40;99.90;;;;;;5041703;28;20191;-86
2023/01/04 07:00:25;;;;;;;0.20;0.20;;;6.40;99.90;;;;;;5039657;28;20458;-87
2023/01/04 07:02:51;;;;;;;0.20;0.20;;;6.40;99.90;;;;;;5045257;28;20277;-85
2023/01/04 07:05:17;;;;;;;0.20;0.20;;;6.50;99.90;;;;;;5043472;28;20627;-86
2023/01/04 07:07:42;;;;;;;0.20;0.20;;;6.50;99.90;;;;;;5039930;28;20229;-84
2023/01/04 07:10:08;;;;;;;0.20;0.20;;;6.60;99.90;;;;;;5044651;28;21045;-85
2023/01/04 07:12:34;;;;;;;0.20;0.20;;;6.60;99.90;;;;;;5042666;28;20191;-85
2023/01/04 07:14:59;;;;;;;0.20;0.20;;;6.60;99.90;;;;;;5041106;28;20182;-84
2023/01/04 07:17:25;;;;;;;0.20;0.20;;;6.60;99.90;;;;;;5043957;28;20191;-85
2023/01/04 07:19:51;;;;;;;0.20;0.20;;;6.60;99.90;;;;;;5039664;28;20240;-85
2023/01/04 07:22:16;;;;;;;0.30;0.30;;;6.70;99.90;;;;;;5040155;28;20214;-86
2023/01/04 07:24:43;;;;;;;0.30;0.30;;;6.70;99.90;;;;;;5021908;28;20192;-85
2023/01/04 07:27:10;;;;;;;0.30;0.30;;;6.80;99.90;;;;;;5027764;28;20253;-85
2023/01/04 07:29:35;;;;;;;0.30;0.30;;;6.90;99.90;;;;;;5046566;28;20524;-87
2023/01/04 07:32:02;;;;;;;0.20;0.20;;;6.90;99.90;;;;;;5045845;28;20520;-86
2023/01/04 07:34:28;;;;;;;0.30;0.30;;;6.90;99.90;;;;;;5046661;28;20208;-85
2023/01/04 07:36:54;;;;;;;0.20;0.20;;;7.00;99.90;;;;;;5046134;28;20441;-85
2023/01/04 07:39:20;;;;;;;0.30;0.30;;;7.10;99.90;;;;;;5043855;28;20187;-86
2023/01/04 07:41:47;;;;;;;0.20;0.20;;;7.10;99.90;;;;;;5030041;28;20218;-84
2023/01/04 07:44:13;;;;;;;0.30;0.30;;;7.00;99.90;;;;;;5045173;28;21182;-84
2023/01/04 07:46:39;;;;;;;0.30;0.30;;;7.00;99.90;;;;;;5036001;28;20608;-84
2023/01/04 07:49:05;;;;;;;0.20;0.20;;;7.00;99.90;;;;;;5044507;28;20516;-83
2023/01/04 07:51:32;;;;;;;0.20;0.20;;;7.10;99.90;;;;;;5036323;28;20441;-84
2023/01/04 07:53:59;;;;;;;0.20;0.20;;;7.10;99.90;;;;;;5043697;28;20449;-85
2023/01/04 07:56:24;;;;;;;0.30;0.30;;;7.10;99.90;;;;;;5029922;28;20445;-85
2023/01/04 07:58:50;;;;;;;0.20;0.20;;;7.20;99.90;;;;;;5023677;28;20436;-85
2023/01/04 08:01:17;;;;;;;0.20;0.20;;;7.20;99.90;;;;;;5035688;28;20658;-84
2023/01/04 08:03:46;;;;;;;0.20;0.20;;;7.20;99.90;;;;;;5020077;28;20180;-83
2023/01/04 08:06:13;;;;;;;0.20;0.20;;;7.30;99.90;;;;;;5038239;28;20556;-85
2023/01/04 08:08:40;;;;;;;0.20;0.20;;;7.30;99.90;;;;;;5030955;28;20945;-84
2023/01/04 08:11:08;;;;;;;0.20;0.20;;;7.30;99.90;;;;;;5049923;28;20936;-84
2023/01/04 08:13:33;;;;;;;0.20;0.20;;;7.40;99.90;;;;;;5047012;28;20990;-84
2023/01/04 08:15:59;;;;;;;0.20;0.20;;;7.40;99.90;;;;;;5043849;28;20437;-84
2023/01/04 08:18:25;;;;;;;0.20;0.20;;;7.50;99.90;;;;;;5053195;28;20187;-84
2023/01/04 08:21:01;;;;;;;0.30;0.30;;;7.50;99.90;;;;;;5025221;28;20469;-84
2023/01/04 08:23:27;;;;;;;0.20;0.20;;;7.60;99.90;;;;;;5049858;28;20187;-84
2023/01/04 08:25:52;;;;;;;0.27;0.27;;;7.60;99.90;;;;;;5030728;28;21102;-84
2023/01/04 08:28:18;;;;;;;0.20;0.20;;;7.60;99.90;;;;;;5031522;28;20241;-82
2023/01/04 08:30:43;;;;;;;0.20;0.20;;;7.60;99.90;;;;;;5026503;28;20190;-84
2023/01/04 08:33:13;;;;;;;0.20;0.20;;;7.70;99.90;;;;;;5043429;28;20191;-83
2023/01/04 08:35:39;;;;;;;0.20;0.20;;;7.80;99.90;;;;;;5043121;28;20765;-84
2023/01/04 08:38:04;;;;;;;0.20;0.20;;;7.80;99.90;;;;;;5026910;28;20550;-85
2023/01/04 08:40:30;;;;;;;0.30;0.30;;;7.90;99.90;;;;;;5047450;28;20274;-84
2023/01/04 08:42:55;;;;;;;0.20;0.20;;;8.00;99.90;;;;;;5045402;28;20611;-84
2023/01/04 08:45:21;;;;;;;0.20;0.20;;;8.10;99.90;;;;;;5042790;28;20191;-85
2023/01/04 08:47:46;;;;;;;0.20;0.20;;;8.10;99.90;;;;;;5048762;28;20882;-84
2023/01/04 08:50:13;;;;;;;0.20;0.20;;;8.20;99.90;;;;;;5032686;28;20533;-86
2023/01/04 08:52:40;;;;;;;0.20;0.20;;;8.20;99.90;;;;;;5047655;28;20183;-86
2023/01/04 08:55:06;;;;;;;0.20;0.20;;;8.20;99.90;;;;;;5045528;28;20448;-86
2023/01/04 08:57:33;;;;;;;0.20;0.20;;;8.20;99.90;;;;;;5038257;28;20441;-86
2023/01/04 08:59:58;;;;;;;0.20;0.20;;;8.20;99.90;;;;;;5037054;28;20183;-86
2023/01/04 09:02:26;;;;;;;0.20;0.20;;;8.40;99.90;;;;;;5023473;28;21505;-85
2023/01/04 09:04:58;;;;;;;0.10;0.10;;;8.40;99.90;;;;;;5022649;28;20234;-84
2023/01/04 09:07:24;;;;;;;0.20;0.20;;;8.40;99.90;;;;;;5037618;28;20485;-85
2023/01/04 09:09:49;;;;;;;0.20;0.20;;;8.50;99.90;;;;;;5034601;28;21321;-85
2023/01/04 09:12:15;;;;;;;0.20;0.20;;;8.50;99.90;;;;;;5037396;28;20451;-85
2023/01/04 09:14:40;;;;;;;0.20;0.20;;;8.50;99.90;;;;;;5039561;28;20237;-85
2023/01/04 09:17:06;;;;;;;0.20;0.20;;;8.60;99.90;;;;;;5043383;28;20199;-85
2023/01/04 09:19:32;;;;;;;0.20;0.20;;;8.50;99.90;;;;;;5047410;28;20203;-86
2023/01/04 09:21:57;;;;;;;0.20;0.20;;;8.60;99.90;;;;;;5046451;28;20197;-86
2023/01/04 09:24:23;;;;;;;0.20;0.20;;;8.70;99.90;;;;;;5024411;28;20217;-86
2023/01/04 09:26:48;;;;;;;0.20;0.20;;;8.70;99.90;;;;;;5039870;28;20222;-86
2023/01/04 09:29:14;;;;;;;0.20;0.20;;;8.70;99.90;;;;;;5030200;28;20197;-86
2023/01/04 09:31:39;;;;;;;0.20;0.20;;;8.70;99.90;;;;;;5038418;28;20270;-86
2023/01/04 09:34:05;;;;;;;0.20;0.20;;;8.70;99.90;;;;;;5048287;28;20190;-86
2023/01/04 09:36:31;;;;;;;0.20;0.20;;;8.80;99.90;;;;;;5049586;28;20190;-86
2023/01/04 09:38:56;;;;;;;0.20;0.20;;;8.80;99.90;;;;;;5040882;28;20456;-87
2023/01/04 09:41:26;;;;;;;0.20;0.20;;;8.80;99.90;;;;;;5050577;28;20202;-86
2023/01/04 09:43:56;;;;;;;0.20;0.20;;;8.90;99.90;;;;;;5045461;28;20205;-86
2023/01/04 09:46:30;;;;;;;0.20;0.20;;;8.90;99.90;;;;;;5042962;28;20480;-87
2023/01/04 09:49:13;;;;;;;0.20;0.20;;;8.90;99.90;;;;;;5040083;28;20434;-85
2023/01/04 09:51:44;;;;;;;0.20;0.20;;;9.10;99.90;;;;;;5025530;28;21019;-86
2023/01/04 09:54:15;;;;;;;0.20;0.20;;;9.00;99.90;;;;;;5042676;28;20482;-85
2023/01/04 09:56:50;;;;;;;0.20;0.20;;;9.00;99.90;;;;;;5048902;28;20445;-85
2023/01/04 09:59:19;;;;;;;0.20;0.20;;;9.00;99.90;;;;;;5028948;28;20447;-86
2023/01/04 10:01:49;;;;;;;0.20;0.20;;;9.00;99.90;;;;;;5018452;28;20458;-86
2023/01/04 10:04:30;;;;;;;0.13;0.13;;;9.10;99.90;;;;;;5042544;28;20524;-86
2023/01/04 10:06:57;;;;;;;0.20;0.20;;;9.10;99.90;;;;;;5041669;28;20576;-86
2023/01/04 10:09:22;;;;;;;0.20;0.20;;;9.20;99.90;;;;;;5030368;28;20464;-86
2023/01/04 10:12:17;;;;;;;0.20;0.20;;;9.20;99.90;;;;;;5043253;28;20453;-85
2023/01/04 10:15:01;;;;;;;0.20;0.20;;;9.20;99.90;;;;;;5026881;28;20261;-83
2023/01/04 10:17:51;;;;;;;0.20;0.20;;;9.20;99.90;;;;;;5047962;28;20433;-84
2023/01/04 10:20:57;;;;;;;0.20;0.20;;;9.30;99.90;;;;;;5047170;28;20844;-84
2023/01/04 10:24:11;;;;;;;0.20;0.20;;;9.30;99.90;;;;;;4982080;28;20455;-84
2023/01/04 10:26:46;;;;;;;0.20;0.20;;;9.20;99.90;;;;;;4969323;28;20480;-83
2023/01/04 10:29:41;;;;;;;0.20;0.20;;;9.30;99.90;;;;;;5039719;28;20445;-84
2023/01/04 10:32:30;;;;;;;0.20;0.20;;;9.40;99.90;;;;;;5028717;28;20905;-83
2023/01/04 10:34:56;;;;;;;0.20;0.20;;;9.40;99.90;;;;;;5048116;28;20457;-84
2023/01/04 10:37:34;;;;;;;0.20;0.20;;;9.50;99.90;;;;;;5031581;28;21131;-84
2023/01/04 10:40:00;;;;;;;0.20;0.20;;;9.40;99.90;;;;;;5031638;28;20206;-84
2023/01/04 10:42:30;;;;;;;0.20;0.20;;;9.50;99.90;;;;;;5048824;28;20476;-84
2023/01/04 10:44:56;;;;;;;0.20;0.20;;;9.50;99.90;;;;;;5021393;28;20224;-85
2023/01/04 10:47:36;;;;;;;0.20;0.20;;;9.50;99.90;;;;;;5030612;28;20502;-85
2023/01/04 10:50:13;;;;;;;0.20;0.20;;;9.60;99.90;;;;;;5043756;28;20178;-84
2023/01/04 10:53:14;;;;;;;0.20;0.20;;;9.60;99.90;;;;;;5045702;28;20436;-85
2023/01/04 10:55:48;;;;;;;0.20;0.20;;;9.60;99.90;;;;;;5000865;28;20535;-84
2023/01/04 10:58:25;;;;;;;0.20;0.20;;;9.60;99.90;;;;;;5042284;28;20445;-84
2023/01/04 11:01:02;;;;;;;0.20;0.20;;;9.60;99.90;;;;;;5042577;28;20441;-85
2023/01/04 11:03:45;;;;;;;0.20;0.20;;;9.60;99.90;;;;;;5031822;28;20432;-82
2023/01/04 11:06:22;;;;;;;0.20;0.20;;;9.60;99.90;;;;;;5042739;28;20477;-81
2023/01/04 11:08:59;;;;;;;0.20;0.20;;;9.60;99.90;;;;;;5026864;28;21377;-82
2023/01/04 11:11:32;;;;;;;0.20;0.20;;;9.60;99.90;;;;;;5038249;28;20445;-86
2023/01/04 11:13:59;;;;;;;0.20;0.20;;;9.60;99.90;;;;;;5029290;28;20444;-84
2023/01/04 11:16:25;;;;;;;0.20;0.20;;;9.60;99.90;;;;;;5027431;28;20479;-85
2023/01/04 11:18:51;;;;;;;0.20;0.20;;;9.60;99.90;;;;;;5048314;28;20456;-84
2023/01/04 11:21:21;;;;;;;0.20;0.20;;;9.60;99.90;;;;;;5042757;28;21270;-85
2023/01/04 11:23:46;;;;;;;0.20;0.20;;;9.60;99.90;;;;;;5036188;28;20457;-85
2023/01/04 11:26:20;;;;;;;0.20;0.20;;;9.70;99.90;;;;;;5045426;28;20961;-85
2023/01/04 11:28:57;;;;;;;0.20;0.20;;;9.70;99.90;;;;;;5045722;28;20179;-84
2023/01/04 11:31:44;;;;;;;0.20;0.20;;;9.70;99.90;;;;;;5027961;28;24288;-86
2023/01/04 11:34:10;;;;;;;0.20;0.20;;;9.70;99.90;;;;;;5046841;28;20998;-87
2023/01/04 11:36:35;;;;;;;0.20;0.20;;;9.70;99.90;;;;;;5037303;28;20445;-84
2023/01/04 11:39:02;;;;;;;0.20;0.20;;;9.70;99.90;;;;;;5035466;28;20236;-81
2023/01/04 11:41:28;;;;;;;0.20;0.20;;;9.70;99.90;;;;;;5038113;28;20191;-82
2023/01/04 11:44:03;;;;;;;0.20;0.20;;;9.70;99.90;;;;;;5042883;28;20452;-85
2023/01/04 11:46:30;;;;;;;0.20;0.20;;;9.80;99.90;;;;;;5029319;28;20728;-85
2023/01/04 11:48:56;;;;;;;0.20;0.20;;;9.70;99.90;;;;;;5038272;28;20441;-82
2023/01/04 11:51:28;;;;;;;0.20;0.20;;;9.70;99.90;;;;;;5033458;28;20554;-84
2023/01/04 11:54:03;;;;;;;0.20;0.20;;;9.80;99.90;;;;;;5025072;28;20179;-83
2023/01/04 11:56:36;;;;;;;0.20;0.20;;;9.80;99.90;;;;;;5020593;28;20451;-83
2023/01/04 11:59:04;;;;;;;0.20;0.20;;;9.80;99.90;;;;;;5041474;28;20532;-83
2023/01/04 12:01:35;;;;;;;0.20;0.20;;;9.80;99.90;;;;;;5049328;28;20441;-86
2023/01/04 12:04:00;;;;;;;0.20;0.20;;;9.80;99.90;;;;;;5044364;28;20481;-83
2023/01/04 12:06:57;;;;;;;0.17;0.17;;;9.80;99.90;;;;;;5044181;28;20546;-82
2023/01/04 12:09:23;;;;;;;0.20;0.20;;;9.80;99.90;;;;;;5044273;28;20224;-82
2023/01/04 12:11:51;;;;;;;0.20;0.20;;;9.80;99.90;;;;;;5033026;28;21191;-81
2023/01/04 12:14:21;;;;;;;0.20;0.20;;;9.80;99.90;;;;;;5049040;28;20207;-85
2023/01/04 12:17:06;;;;;;;0.20;0.20;;;9.90;99.90;;;;;;5052417;28;20445;-86
2023/01/04 12:19:34;;;;;;;0.20;0.20;;;9.80;99.90;;;;;;5030223;28;20544;-84
2023/01/04 12:22:01;;;;;;;0.20;0.20;;;9.90;99.90;;;;;;5046818;28;20445;-84
2023/01/04 12:24:30;;;;;;;0.20;0.20;;;9.90;99.90;;;;;;5037626;28;20541;-85
2023/01/04 12:26:56;;;;;;;0.20;0.20;;;9.90;99.90;;;;;;5035401;28;20487;-83
2023/01/04 12:29:21;;;;;;;0.20;0.20;;;9.90;99.90;;;;;;5034070;28;20795;-84
2023/01/04 12:31:52;;;;;;;0.20;0.20;;;9.80;99.90;;;;;;5025780;28;20465;-81
2023/01/04 12:34:21;;;;;;;0.20;0.20;;;9.80;99.90;;;;;;5048716;28;20237;-84
2023/01/04 12:36:54;;;;;;;0.20;0.20;;;9.80;99.90;;;;;;5037332;28;21052;-85
2023/01/04 12:39:21;;;;;;;0.20;0.20;;;9.80;99.90;;;;;;5039038;28;20468;-85
2023/01/04 12:41:59;;;;;;;0.20;0.20;;;9.90;99.90;;;;;;5040799;28;20475;-84
2023/01/04 12:44:42;;;;;;;0.20;0.20;;;9.90;99.90;;;;;;5018644;28;21757;-85
2023/01/04 12:50:07;;;;;;;0.20;0.20;;;9.80;99.90;;;;;;5041427;28;20445;-83
2023/01/04 12:52:32;;;;;;;0.20;0.20;;;9.80;99.90;;;;;;5025174;28;20474;-84
2023/01/04 12:55:01;;;;;;;0.20;0.20;;;9.80;99.90;;;;;;5047914;28;20444;-84
2023/01/04 12:57:32;;;;;;;0.20;0.20;;;9.80;99.90;;;;;;5046213;28;20782;-84
2023/01/04 12:59:58;;;;;;;0.20;0.20;;;9.80;99.90;;;;;;5045715;28;20452;-84
2023/01/04 13:02:28;;;;;;;0.20;0.20;;;9.80;99.90;;;;;;5043096;28;20450;-81
2023/01/04 13:05:21;;;;;;;0.20;0.20;;;9.80;99.90;;;;;;5044807;28;20226;-84
2023/01/04 13:07:56;;;;;;;0.20;0.20;;;9.80;99.90;;;;;;5042605;28;20556;-84
2023/01/04 13:10:30;;;;;;;0.20;0.20;;;9.80;99.90;;;;;;5042618;28;20452;-83
2023/01/04 13:13:26;;;;;;;0.20;0.20;;;9.80;99.90;;;;;;5044069;28;20442;-84
2023/01/04 13:16:02;;;;;;;0.20;0.20;;;9.90;99.90;;;;;;5037175;28;21012;-82
2023/01/04 13:18:46;;;;;;;0.20;0.20;;;9.80;99.90;;;;;;5017455;28;20445;-81
2023/01/04 13:21:47;;;;;;;0.20;0.20;;;9.80;99.90;;;;;;5038160;28;20464;-85
2023/01/04 13:24:22;;;;;;;0.20;0.20;;;9.80;99.90;;;;;;5039267;28;20452;-84
2023/01/04 13:26:52;;;;;;;0.20;0.20;;;9.90;99.90;;;;;;5023834;28;20511;-84
2023/01/04 13:29:21;;;;;;;0.20;0.20;;;9.90;99.90;;;;;;5019978;28;20437;-83
2023/01/04 13:31:53;;;;;;;0.20;0.20;;;9.90;99.90;;;;;;5040769;28;20464;-86
2023/01/04 13:34:23;;;;;;;0.20;0.20;;;9.90;99.90;;;;;;5043095;28;20429;-86
2023/01/04 13:37:10;;;;;;;0.20;0.20;;;9.90;99.90;;;;;;5043653;28;20984;-86
2023/01/04 13:39:42;;;;;;;0.20;0.20;;;9.90;99.90;;;;;;5049675;28;20445;-88
2023/01/04 13:42:29;;;;;;;0.20;0.20;;;9.90;99.90;;;;;;5040383;28;20524;-89
2023/01/04 13:45:18;;;;;;;0.20;0.20;;;9.90;99.90;;;;;;5048976;28;20584;-88
2023/01/04 13:47:45;;;;;;;0.20;0.20;;;9.90;99.90;;;;;;5026366;28;20480;-84
2023/01/04 13:50:46;;;;;;;0.20;0.20;;;9.90;99.90;;;;;;5035858;28;20482;-86
2023/01/04 13:53:23;;;;;;;0.20;0.20;;;9.90;99.90;;;;;;5034353;28;20441;-88
2023/01/04 13:55:53;;;;;;;0.20;0.20;;;9.90;99.90;;;;;;5044913;28;20437;-86
2023/01/04 13:58:22;;;;;;;0.20;0.20;;;9.90;99.90;;;;;;5044058;28;20524;-87
2023/01/04 14:00:52;;;;;;;0.20;0.20;;;10.00;99.90;;;;;;5044735;28;20476;-88